sensor_id;sensor_type;location;lat;lon;timestamp;P1;durP1;ratioP1;P2;durP2;ratioP2
28086;SDS011;15392;48.912;8.380;2022-12-11T00:00:39;6.88;;;6.47;;
28086;SDS011;15392;48.912;8.380;2022-12-11T00:03:05;6.70;;;6.32;;
28086;SDS011;15392;48.912;8.380;2022-12-11T00:05:32;6.45;;;6.15;;
28086;SDS011;15392;48.912;8.380;2022-12-11T00:07:58;7.20;;;6.80;;
28086;SDS011;15392;48.912;8.380;2022-12-11T00:10:24;6.80;;;6.40;;
28086;SDS011;15392;48.912;8.380;2022-12-11T00:12:50;6.60;;;6.20;;
28086;SDS011;15392;48.912;8.380;2022-12-11T00:15:16;7.35;;;6.95;;
28086;SDS011;15392;48.912;8.380;2022-12-11T00:17:41;7.95;;;7.40;;
28086;SDS011;15392;48.912;8.380;2022-12-11T00:20:07;9.10;;;8.50;;
28086;SDS011;15392;48.912;8.380;2022-12-11T00:22:34;9.82;;;9.18;;
28086;SDS011;15392;48.912;8.380;2022-12-11T00:24:59;11.10;;;10.27;;
28086;SDS011;15392;48.912;8.380;2022-12-11T00:27:25;11.18;;;10.38;;
28086;SDS011;15392;48.912;8.380;2022-12-11T00:29:51;12.00;;;11.00;;
28086;SDS011;15392;48.912;8.380;2022-12-11T00:32:17;12.00;;;11.10;;
28086;SDS011;15392;48.912;8.380;2022-12-11T00:34:42;12.93;;;11.93;;
28086;SDS011;15392;48.912;8.380;2022-12-11T00:37:08;13.80;;;12.65;;
28086;SDS011;15392;48.912;8.380;2022-12-11T00:39:35;13.98;;;12.55;;
28086;SDS011;15392;48.912;8.380;2022-12-11T00:42:03;13.68;;;12.57;;
28086;SDS011;15392;48.912;8.380;2022-12-11T00:44:31;14.13;;;12.82;;
28086;SDS011;15392;48.912;8.380;2022-12-11T00:46:57;13.93;;;12.73;;
28086;SDS011;15392;48.912;8.380;2022-12-11T00:49:23;14.32;;;13.13;;
28086;SDS011;15392;48.912;8.380;2022-12-11T00:51:48;15.02;;;13.75;;
28086;SDS011;15392;48.912;8.380;2022-12-11T00:54:14;15.25;;;13.90;;
28086;SDS011;15392;48.912;8.380;2022-12-11T00:56:40;15.68;;;14.38;;
28086;SDS011;15392;48.912;8.380;2022-12-11T00:59:06;15.70;;;14.30;;
28086;SDS011;15392;48.912;8.380;2022-12-11T01:01:31;14.40;;;13.30;;
28086;SDS011;15392;48.912;8.380;2022-12-11T01:03:57;15.45;;;14.10;;
28086;SDS011;15392;48.912;8.380;2022-12-11T01:06:24;15.25;;;14.02;;
28086;SDS011;15392;48.912;8.380;2022-12-11T01:08:51;15.45;;;14.15;;
28086;SDS011;15392;48.912;8.380;2022-12-11T01:11:37;15.05;;;13.82;;
28086;SDS011;15392;48.912;8.380;2022-12-11T01:14:05;15.57;;;14.18;;
28086;SDS011;15392;48.912;8.380;2022-12-11T01:16:31;15.60;;;14.27;;
28086;SDS011;15392;48.912;8.380;2022-12-11T01:18:57;16.17;;;14.77;;
28086;SDS011;15392;48.912;8.380;2022-12-11T01:21:23;15.77;;;14.48;;
28086;SDS011;15392;48.912;8.380;2022-12-11T01:23:49;15.10;;;13.60;;
28086;SDS011;15392;48.912;8.380;2022-12-11T01:26:15;14.40;;;13.18;;
28086;SDS011;15392;48.912;8.380;2022-12-11T01:28:42;15.82;;;14.52;;
28086;SDS011;15392;48.912;8.380;2022-12-11T01:31:09;16.70;;;15.23;;
28086;SDS011;15392;48.912;8.380;2022-12-11T01:33:38;17.10;;;15.52;;
28086;SDS011;15392;48.912;8.380;2022-12-11T01:36:23;17.48;;;15.88;;
28086;SDS011;15392;48.912;8.380;2022-12-11T01:38:49;16.23;;;14.82;;
28086;SDS011;15392;48.912;8.380;2022-12-11T01:41:15;15.65;;;14.30;;
28086;SDS011;15392;48.912;8.380;2022-12-11T01:43:59;15.80;;;14.32;;
28086;SDS011;15392;48.912;8.380;2022-12-11T01:46:32;17.52;;;15.88;;
28086;SDS011;15392;48.912;8.380;2022-12-11T01:49:00;16.85;;;15.32;;
28086;SDS011;15392;48.912;8.380;2022-12-11T01:51:30;16.08;;;14.57;;
28086;SDS011;15392;48.912;8.380;2022-12-11T01:54:03;17.20;;;15.70;;
28086;SDS011;15392;48.912;8.380;2022-12-11T01:56:35;17.35;;;15.68;;
28086;SDS011;15392;48.912;8.380;2022-12-11T01:59:03;16.38;;;14.82;;
28086;SDS011;15392;48.912;8.380;2022-12-11T02:01:44;16.40;;;14.80;;
28086;SDS011;15392;48.912;8.380;2022-12-11T02:04:18;15.80;;;14.40;;
28086;SDS011;15392;48.912;8.380;2022-12-11T02:06:45;16.15;;;14.80;;
28086;SDS011;15392;48.912;8.380;2022-12-11T02:09:15;16.70;;;15.15;;
28086;SDS011;15392;48.912;8.380;2022-12-11T02:18:08;15.38;;;14.07;;
28086;SDS011;15392;48.912;8.380;2022-12-11T02:20:42;15.25;;;13.93;;
28086;SDS011;15392;48.912;8.380;2022-12-11T02:26:48;15.10;;;13.85;;
28086;SDS011;15392;48.912;8.380;2022-12-11T02:30:07;15.50;;;14.15;;
28086;SDS011;15392;48.912;8.380;2022-12-11T02:32:37;16.52;;;15.02;;
28086;SDS011;15392;48.912;8.380;2022-12-11T02:38:00;16.35;;;14.88;;
28086;SDS011;15392;48.912;8.380;2022-12-11T02:40:30;16.60;;;15.10;;
28086;SDS011;15392;48.912;8.380;2022-12-11T02:43:00;17.60;;;15.88;;
28086;SDS011;15392;48.912;8.380;2022-12-11T02:45:29;16.08;;;14.68;;
28086;SDS011;15392;48.912;8.380;2022-12-11T02:47:56;16.75;;;15.32;;
28086;SDS011;15392;48.912;8.380;2022-12-11T02:50:25;17.60;;;15.98;;
28086;SDS011;15392;48.912;8.380;2022-12-11T02:52:52;16.58;;;15.07;;
28086;SDS011;15392;48.912;8.380;2022-12-11T02:55:21;17.70;;;16.02;;
28086;SDS011;15392;48.912;8.380;2022-12-11T02:57:56;18.07;;;16.37;;
28086;SDS011;15392;48.912;8.380;2022-12-11T03:00:30;18.63;;;16.85;;
28086;SDS011;15392;48.912;8.380;2022-12-11T03:02:56;18.08;;;16.35;;
28086;SDS011;15392;48.912;8.380;2022-12-11T03:05:22;18.15;;;16.45;;
28086;SDS011;15392;48.912;8.380;2022-12-11T03:07:48;19.02;;;17.08;;
28086;SDS011;15392;48.912;8.380;2022-12-11T03:10:16;18.58;;;16.63;;
28086;SDS011;15392;48.912;8.380;2022-12-11T03:12:43;17.88;;;16.13;;
28086;SDS011;15392;48.912;8.380;2022-12-11T03:15:14;17.98;;;16.30;;
28086;SDS011;15392;48.912;8.380;2022-12-11T03:20:41;16.98;;;15.43;;
28086;SDS011;15392;48.912;8.380;2022-12-11T03:23:59;16.77;;;15.27;;
28086;SDS011;15392;48.912;8.380;2022-12-11T03:26:36;17.77;;;16.08;;
28086;SDS011;15392;48.912;8.380;2022-12-11T03:29:19;19.35;;;17.45;;
28086;SDS011;15392;48.912;8.380;2022-12-11T03:35:00;17.48;;;15.77;;
28086;SDS011;15392;48.912;8.380;2022-12-11T03:37:33;18.63;;;16.73;;
28086;SDS011;15392;48.912;8.380;2022-12-11T03:40:03;18.30;;;16.60;;
28086;SDS011;15392;48.912;8.380;2022-12-11T03:42:35;19.00;;;17.23;;
28086;SDS011;15392;48.912;8.380;2022-12-11T03:45:03;18.65;;;16.65;;
28086;SDS011;15392;48.912;8.380;2022-12-11T03:47:30;18.73;;;16.88;;
28086;SDS011;15392;48.912;8.380;2022-12-11T03:49:57;19.08;;;17.27;;
28086;SDS011;15392;48.912;8.380;2022-12-11T03:52:25;18.77;;;17.08;;
28086;SDS011;15392;48.912;8.380;2022-12-11T03:54:53;19.00;;;17.20;;
28086;SDS011;15392;48.912;8.380;2022-12-11T03:57:26;19.30;;;17.40;;
28086;SDS011;15392;48.912;8.380;2022-12-11T03:59:57;19.50;;;17.60;;
28086;SDS011;15392;48.912;8.380;2022-12-11T04:02:23;18.48;;;16.70;;
28086;SDS011;15392;48.912;8.380;2022-12-11T04:04:48;19.75;;;17.85;;
28086;SDS011;15392;48.912;8.380;2022-12-11T04:07:14;20.42;;;18.38;;
28086;SDS011;15392;48.912;8.380;2022-12-11T04:09:40;19.38;;;17.48;;
28086;SDS011;15392;48.912;8.380;2022-12-11T04:12:05;18.77;;;16.98;;
28086;SDS011;15392;48.912;8.380;2022-12-11T04:14:31;18.35;;;16.65;;
28086;SDS011;15392;48.912;8.380;2022-12-11T04:17:15;18.38;;;16.58;;
28086;SDS011;15392;48.912;8.380;2022-12-11T04:20:01;18.15;;;16.40;;
28086;SDS011;15392;48.912;8.380;2022-12-11T04:22:47;18.58;;;16.77;;
28086;SDS011;15392;48.912;8.380;2022-12-11T04:25:31;16.98;;;15.43;;
28086;SDS011;15392;48.912;8.380;2022-12-11T04:27:57;17.70;;;16.05;;
28086;SDS011;15392;48.912;8.380;2022-12-11T04:30:23;20.05;;;18.05;;
28086;SDS011;15392;48.912;8.380;2022-12-11T04:32:58;18.83;;;17.02;;
28086;SDS011;15392;48.912;8.380;2022-12-11T04:35:24;17.98;;;16.13;;
28086;SDS011;15392;48.912;8.380;2022-12-11T04:37:50;17.67;;;16.05;;
28086;SDS011;15392;48.912;8.380;2022-12-11T04:40:17;16.50;;;15.07;;
28086;SDS011;15392;48.912;8.380;2022-12-11T04:42:44;18.35;;;16.63;;
28086;SDS011;15392;48.912;8.380;2022-12-11T04:45:10;17.50;;;15.90;;
28086;SDS011;15392;48.912;8.380;2022-12-11T04:47:37;18.75;;;16.92;;
28086;SDS011;15392;48.912;8.380;2022-12-11T04:50:05;15.98;;;14.57;;
28086;SDS011;15392;48.912;8.380;2022-12-11T04:52:33;18.38;;;16.67;;
28086;SDS011;15392;48.912;8.380;2022-12-11T04:54:59;18.95;;;17.13;;
28086;SDS011;15392;48.912;8.380;2022-12-11T04:57:25;17.13;;;15.52;;
28086;SDS011;15392;48.912;8.380;2022-12-11T04:59:50;18.23;;;16.42;;
28086;SDS011;15392;48.912;8.380;2022-12-11T05:02:16;18.23;;;16.52;;
28086;SDS011;15392;48.912;8.380;2022-12-11T05:04:42;18.73;;;16.92;;
28086;SDS011;15392;48.912;8.380;2022-12-11T05:07:08;19.20;;;17.30;;
28086;SDS011;15392;48.912;8.380;2022-12-11T05:09:34;18.33;;;16.55;;
28086;SDS011;15392;48.912;8.380;2022-12-11T05:12:00;18.67;;;16.77;;
28086;SDS011;15392;48.912;8.380;2022-12-11T05:14:26;18.10;;;16.40;;
28086;SDS011;15392;48.912;8.380;2022-12-11T05:16:55;18.40;;;16.55;;
28086;SDS011;15392;48.912;8.380;2022-12-11T05:19:23;18.23;;;16.42;;
28086;SDS011;15392;48.912;8.380;2022-12-11T05:21:49;18.80;;;17.00;;
28086;SDS011;15392;48.912;8.380;2022-12-11T05:24:15;18.58;;;16.80;;
28086;SDS011;15392;48.912;8.380;2022-12-11T05:26:40;19.00;;;17.20;;
28086;SDS011;15392;48.912;8.380;2022-12-11T05:29:06;18.88;;;17.08;;
28086;SDS011;15392;48.912;8.380;2022-12-11T05:31:32;18.27;;;16.55;;
28086;SDS011;15392;48.912;8.380;2022-12-11T05:33:58;16.50;;;14.98;;
28086;SDS011;15392;48.912;8.380;2022-12-11T05:36:24;18.20;;;16.40;;
28086;SDS011;15392;48.912;8.380;2022-12-11T05:38:53;16.85;;;15.23;;
28086;SDS011;15392;48.912;8.380;2022-12-11T05:41:21;18.67;;;16.90;;
28086;SDS011;15392;48.912;8.380;2022-12-11T05:43:49;18.15;;;16.38;;
28086;SDS011;15392;48.912;8.380;2022-12-11T05:46:17;17.48;;;15.77;;
28086;SDS011;15392;48.912;8.380;2022-12-11T05:51:14;16.50;;;14.98;;
28086;SDS011;15392;48.912;8.380;2022-12-11T05:53:42;16.48;;;14.95;;
28086;SDS011;15392;48.912;8.380;2022-12-11T05:56:09;17.88;;;16.23;;
28086;SDS011;15392;48.912;8.380;2022-12-11T05:58:39;18.25;;;16.50;;
28086;SDS011;15392;48.912;8.380;2022-12-11T06:01:07;18.23;;;16.45;;
28086;SDS011;15392;48.912;8.380;2022-12-11T06:03:41;18.40;;;16.67;;
28086;SDS011;15392;48.912;8.380;2022-12-11T06:06:07;18.30;;;16.60;;
28086;SDS011;15392;48.912;8.380;2022-12-11T06:08:33;17.50;;;15.98;;
28086;SDS011;15392;48.912;8.380;2022-12-11T06:10:59;17.88;;;16.08;;
28086;SDS011;15392;48.912;8.380;2022-12-11T06:13:26;18.10;;;16.40;;
28086;SDS011;15392;48.912;8.380;2022-12-11T06:15:52;19.30;;;17.45;;
28086;SDS011;15392;48.912;8.380;2022-12-11T06:18:18;17.08;;;15.55;;
28086;SDS011;15392;48.912;8.380;2022-12-11T06:20:44;18.88;;;17.00;;
28086;SDS011;15392;48.912;8.380;2022-12-11T06:23:09;18.20;;;16.40;;
28086;SDS011;15392;48.912;8.380;2022-12-11T06:25:37;17.73;;;16.02;;
28086;SDS011;15392;48.912;8.380;2022-12-11T06:28:03;17.40;;;15.80;;
28086;SDS011;15392;48.912;8.380;2022-12-11T06:30:29;16.42;;;14.77;;
28086;SDS011;15392;48.912;8.380;2022-12-11T06:32:56;19.27;;;17.48;;
28086;SDS011;15392;48.912;8.380;2022-12-11T06:35:23;18.60;;;16.88;;
28086;SDS011;15392;48.912;8.380;2022-12-11T06:37:49;19.48;;;17.48;;
28086;SDS011;15392;48.912;8.380;2022-12-11T06:40:14;17.73;;;16.05;;
28086;SDS011;15392;48.912;8.380;2022-12-11T06:42:40;18.05;;;16.33;;
28086;SDS011;15392;48.912;8.380;2022-12-11T06:45:06;17.35;;;15.77;;
28086;SDS011;15392;48.912;8.380;2022-12-11T06:47:32;17.92;;;16.23;;
28086;SDS011;15392;48.912;8.380;2022-12-11T06:49:58;16.65;;;15.13;;
28086;SDS011;15392;48.912;8.380;2022-12-11T06:52:25;18.58;;;16.83;;
28086;SDS011;15392;48.912;8.380;2022-12-11T06:54:54;18.90;;;16.98;;
28086;SDS011;15392;48.912;8.380;2022-12-11T06:57:20;17.48;;;15.85;;
28086;SDS011;15392;48.912;8.380;2022-12-11T06:59:49;19.15;;;17.30;;
28086;SDS011;15392;48.912;8.380;2022-12-11T07:02:16;18.13;;;16.40;;
28086;SDS011;15392;48.912;8.380;2022-12-11T07:04:43;17.50;;;15.93;;
28086;SDS011;15392;48.912;8.380;2022-12-11T07:07:09;17.67;;;15.98;;
28086;SDS011;15392;48.912;8.380;2022-12-11T07:09:36;18.83;;;17.02;;
28086;SDS011;15392;48.912;8.380;2022-12-11T07:12:04;19.00;;;17.23;;
28086;SDS011;15392;48.912;8.380;2022-12-11T07:14:31;17.05;;;15.50;;
28086;SDS011;15392;48.912;8.380;2022-12-11T07:17:00;18.00;;;16.30;;
28086;SDS011;15392;48.912;8.380;2022-12-11T07:19:35;17.52;;;15.93;;
28086;SDS011;15392;48.912;8.380;2022-12-11T07:22:01;16.85;;;15.32;;
28086;SDS011;15392;48.912;8.380;2022-12-11T07:24:26;17.80;;;16.05;;
28086;SDS011;15392;48.912;8.380;2022-12-11T07:26:52;17.20;;;15.60;;
28086;SDS011;15392;48.912;8.380;2022-12-11T07:29:18;17.25;;;15.65;;
28086;SDS011;15392;48.912;8.380;2022-12-11T07:31:44;17.20;;;15.60;;
28086;SDS011;15392;48.912;8.380;2022-12-11T07:34:10;17.52;;;15.88;;
28086;SDS011;15392;48.912;8.380;2022-12-11T07:36:38;17.05;;;15.50;;
28086;SDS011;15392;48.912;8.380;2022-12-11T07:39:03;18.60;;;16.80;;
28086;SDS011;15392;48.912;8.380;2022-12-11T07:41:29;19.92;;;17.90;;
28086;SDS011;15392;48.912;8.380;2022-12-11T07:43:56;20.60;;;18.55;;
28086;SDS011;15392;48.912;8.380;2022-12-11T07:46:25;18.65;;;16.85;;
28086;SDS011;15392;48.912;8.380;2022-12-11T07:48:52;23.00;;;20.67;;
28086;SDS011;15392;48.912;8.380;2022-12-11T07:51:20;22.27;;;20.05;;
28086;SDS011;15392;48.912;8.380;2022-12-11T07:53:52;27.45;;;24.50;;
28086;SDS011;15392;48.912;8.380;2022-12-11T07:56:21;28.70;;;25.58;;
28086;SDS011;15392;48.912;8.380;2022-12-11T07:58:47;21.67;;;19.48;;
28086;SDS011;15392;48.912;8.380;2022-12-11T08:01:22;17.50;;;15.88;;
28086;SDS011;15392;48.912;8.380;2022-12-11T08:03:50;18.75;;;16.85;;
28086;SDS011;15392;48.912;8.380;2022-12-11T08:06:18;17.20;;;15.50;;
28086;SDS011;15392;48.912;8.380;2022-12-11T08:08:45;18.23;;;16.58;;
28086;SDS011;15392;48.912;8.380;2022-12-11T08:11:12;16.83;;;15.20;;
28086;SDS011;15392;48.912;8.380;2022-12-11T08:13:40;19.38;;;17.38;;
28086;SDS011;15392;48.912;8.380;2022-12-11T08:16:07;15.98;;;14.57;;
28086;SDS011;15392;48.912;8.380;2022-12-11T08:18:37;15.68;;;14.18;;
28086;SDS011;15392;48.912;8.380;2022-12-11T08:21:07;16.70;;;15.05;;
28086;SDS011;15392;48.912;8.380;2022-12-11T08:23:36;22.92;;;20.63;;
28086;SDS011;15392;48.912;8.380;2022-12-11T08:26:02;24.15;;;21.67;;
28086;SDS011;15392;48.912;8.380;2022-12-11T08:28:30;25.42;;;22.88;;
28086;SDS011;15392;48.912;8.380;2022-12-11T08:30:56;22.38;;;20.08;;
28086;SDS011;15392;48.912;8.380;2022-12-11T08:33:23;22.00;;;19.80;;
28086;SDS011;15392;48.912;8.380;2022-12-11T08:35:49;19.40;;;17.60;;
28086;SDS011;15392;48.912;8.380;2022-12-11T08:38:15;19.90;;;18.00;;
28086;SDS011;15392;48.912;8.380;2022-12-11T08:40:41;17.05;;;15.52;;
28086;SDS011;15392;48.912;8.380;2022-12-11T08:43:07;20.52;;;18.67;;
28086;SDS011;15392;48.912;8.380;2022-12-11T08:45:32;21.02;;;19.02;;
28086;SDS011;15392;48.912;8.380;2022-12-11T08:47:58;18.27;;;16.63;;
28086;SDS011;15392;48.912;8.380;2022-12-11T08:50:24;17.65;;;16.05;;
28086;SDS011;15392;48.912;8.380;2022-12-11T08:52:51;20.02;;;18.13;;
28086;SDS011;15392;48.912;8.380;2022-12-11T08:55:17;21.33;;;19.13;;
28086;SDS011;15392;48.912;8.380;2022-12-11T08:57:44;21.95;;;19.75;;
28086;SDS011;15392;48.912;8.380;2022-12-11T09:00:10;17.95;;;16.33;;
28086;SDS011;15392;48.912;8.380;2022-12-11T09:02:37;18.15;;;16.40;;
28086;SDS011;15392;48.912;8.380;2022-12-11T09:05:04;36.70;;;30.27;;
28086;SDS011;15392;48.912;8.380;2022-12-11T09:07:35;26.17;;;23.38;;
28086;SDS011;15392;48.912;8.380;2022-12-11T09:12:30;17.20;;;15.57;;
28086;SDS011;15392;48.912;8.380;2022-12-11T09:14:58;18.85;;;16.95;;
28086;SDS011;15392;48.912;8.380;2022-12-11T09:17:24;19.02;;;17.17;;
28086;SDS011;15392;48.912;8.380;2022-12-11T09:19:50;20.02;;;18.13;;
28086;SDS011;15392;48.912;8.380;2022-12-11T09:22:16;21.30;;;19.20;;
28086;SDS011;15392;48.912;8.380;2022-12-11T09:24:41;19.75;;;17.85;;
28086;SDS011;15392;48.912;8.380;2022-12-11T09:27:07;19.35;;;17.55;;
28086;SDS011;15392;48.912;8.380;2022-12-11T09:29:33;17.92;;;16.23;;
28086;SDS011;15392;48.912;8.380;2022-12-11T09:31:59;19.30;;;17.40;;
28086;SDS011;15392;48.912;8.380;2022-12-11T09:34:25;20.00;;;18.00;;
28086;SDS011;15392;48.912;8.380;2022-12-11T09:36:51;19.17;;;17.27;;
28086;SDS011;15392;48.912;8.380;2022-12-11T09:39:16;18.45;;;16.65;;
28086;SDS011;15392;48.912;8.380;2022-12-11T09:41:59;18.00;;;16.27;;
28086;SDS011;15392;48.912;8.380;2022-12-11T09:47:22;18.17;;;16.50;;
28086;SDS011;15392;48.912;8.380;2022-12-11T09:50:04;17.33;;;15.73;;
28086;SDS011;15392;48.912;8.380;2022-12-11T09:52:35;17.40;;;15.73;;
28086;SDS011;15392;48.912;8.380;2022-12-11T09:55:18;17.33;;;15.63;;
28086;SDS011;15392;48.912;8.380;2022-12-11T10:00:56;18.05;;;16.30;;
28086;SDS011;15392;48.912;8.380;2022-12-11T10:06:46;15.98;;;14.55;;
28086;SDS011;15392;48.912;8.380;2022-12-11T10:09:21;18.63;;;16.83;;
28086;SDS011;15392;48.912;8.380;2022-12-11T10:15:24;17.77;;;16.08;;
28086;SDS011;15392;48.912;8.380;2022-12-11T10:18:17;16.50;;;14.95;;
28086;SDS011;15392;48.912;8.380;2022-12-11T10:20:47;16.55;;;15.10;;
28086;SDS011;15392;48.912;8.380;2022-12-11T10:23:31;17.80;;;16.10;;
28086;SDS011;15392;48.912;8.380;2022-12-11T10:26:06;19.33;;;17.42;;
28086;SDS011;15392;48.912;8.380;2022-12-11T10:28:40;18.15;;;16.38;;
28086;SDS011;15392;48.912;8.380;2022-12-11T10:36:28;18.75;;;16.95;;
28086;SDS011;15392;48.912;8.380;2022-12-11T10:38:56;18.50;;;16.77;;
28086;SDS011;15392;48.912;8.380;2022-12-11T10:41:23;18.55;;;16.85;;
28086;SDS011;15392;48.912;8.380;2022-12-11T10:44:00;17.08;;;15.57;;
28086;SDS011;15392;48.912;8.380;2022-12-11T10:46:40;16.55;;;14.95;;
28086;SDS011;15392;48.912;8.380;2022-12-11T10:49:17;17.00;;;15.55;;
28086;SDS011;15392;48.912;8.380;2022-12-11T10:51:53;16.27;;;14.77;;
28086;SDS011;15392;48.912;8.380;2022-12-11T10:54:37;16.00;;;14.57;;
28086;SDS011;15392;48.912;8.380;2022-12-11T10:57:07;16.13;;;14.73;;
28086;SDS011;15392;48.912;8.380;2022-12-11T11:02:15;15.10;;;13.80;;
28086;SDS011;15392;48.912;8.380;2022-12-11T11:04:47;15.57;;;14.15;;
28086;SDS011;15392;48.912;8.380;2022-12-11T11:07:17;16.20;;;14.80;;
28086;SDS011;15392;48.912;8.380;2022-12-11T11:09:48;15.45;;;14.10;;
28086;SDS011;15392;48.912;8.380;2022-12-11T11:15:00;13.35;;;12.25;;
28086;SDS011;15392;48.912;8.380;2022-12-11T11:17:31;14.25;;;13.05;;
28086;SDS011;15392;48.912;8.380;2022-12-11T11:20:14;13.20;;;12.10;;
28086;SDS011;15392;48.912;8.380;2022-12-11T11:22:44;12.27;;;11.35;;
28086;SDS011;15392;48.912;8.380;2022-12-11T11:25:15;13.27;;;12.18;;
28086;SDS011;15392;48.912;8.380;2022-12-11T11:27:47;12.77;;;11.70;;
28086;SDS011;15392;48.912;8.380;2022-12-11T11:32:56;12.45;;;11.40;;
28086;SDS011;15392;48.912;8.380;2022-12-11T11:35:27;12.55;;;11.55;;
28086;SDS011;15392;48.912;8.380;2022-12-11T11:37:57;11.68;;;10.85;;
28086;SDS011;15392;48.912;8.380;2022-12-11T11:40:39;12.95;;;11.85;;
28086;SDS011;15392;48.912;8.380;2022-12-11T11:43:46;13.20;;;11.88;;
28086;SDS011;15392;48.912;8.380;2022-12-11T11:52:06;12.30;;;11.40;;
28086;SDS011;15392;48.912;8.380;2022-12-11T11:55:08;12.00;;;11.02;;
28086;SDS011;15392;48.912;8.380;2022-12-11T11:57:42;11.85;;;10.95;;
28086;SDS011;15392;48.912;8.380;2022-12-11T12:00:28;11.73;;;10.82;;
28086;SDS011;15392;48.912;8.380;2022-12-11T12:02:55;11.68;;;10.77;;
28086;SDS011;15392;48.912;8.380;2022-12-11T12:05:27;11.18;;;10.38;;
28086;SDS011;15392;48.912;8.380;2022-12-11T12:10:57;11.50;;;10.70;;
28086;SDS011;15392;48.912;8.380;2022-12-11T12:13:48;11.73;;;10.75;;
28086;SDS011;15392;48.912;8.380;2022-12-11T12:27:59;11.70;;;10.80;;
28086;SDS011;15392;48.912;8.380;2022-12-11T12:36:45;14.18;;;12.82;;
28086;SDS011;15392;48.912;8.380;2022-12-11T12:42:46;15.85;;;14.32;;
28086;SDS011;15392;48.912;8.380;2022-12-11T12:45:29;23.40;;;20.88;;
28086;SDS011;15392;48.912;8.380;2022-12-11T12:48:21;22.23;;;19.92;;
28086;SDS011;15392;48.912;8.380;2022-12-11T12:50:50;14.98;;;13.65;;
28086;SDS011;15392;48.912;8.380;2022-12-11T12:53:17;13.55;;;12.40;;
28086;SDS011;15392;48.912;8.380;2022-12-11T12:55:47;24.85;;;21.63;;
28086;SDS011;15392;48.912;8.380;2022-12-11T12:58:39;17.52;;;15.88;;
28086;SDS011;15392;48.912;8.380;2022-12-11T13:01:17;15.38;;;13.98;;
28086;SDS011;15392;48.912;8.380;2022-12-11T13:09:12;23.35;;;20.95;;
28086;SDS011;15392;48.912;8.380;2022-12-11T13:11:48;20.58;;;18.58;;
28086;SDS011;15392;48.912;8.380;2022-12-11T13:16:49;20.10;;;18.10;;
28086;SDS011;15392;48.912;8.380;2022-12-11T13:24:25;19.63;;;16.25;;
28086;SDS011;15392;48.912;8.380;2022-12-11T13:26:53;14.90;;;13.70;;
28086;SDS011;15392;48.912;8.380;2022-12-11T13:29:26;16.00;;;14.57;;
28086;SDS011;15392;48.912;8.380;2022-12-11T13:32:18;17.25;;;15.75;;
28086;SDS011;15392;48.912;8.380;2022-12-11T13:34:55;15.63;;;14.32;;
28086;SDS011;15392;48.912;8.380;2022-12-11T13:37:28;14.27;;;13.18;;
28086;SDS011;15392;48.912;8.380;2022-12-11T13:40:06;13.07;;;12.07;;
28086;SDS011;15392;48.912;8.380;2022-12-11T13:43:00;12.77;;;11.88;;
28086;SDS011;15392;48.912;8.380;2022-12-11T13:45:42;12.27;;;11.27;;
28086;SDS011;15392;48.912;8.380;2022-12-11T13:48:16;11.80;;;11.00;;
28086;SDS011;15392;48.912;8.380;2022-12-11T13:50:48;12.30;;;11.40;;
28086;SDS011;15392;48.912;8.380;2022-12-11T13:53:16;11.93;;;11.05;;
28086;SDS011;15392;48.912;8.380;2022-12-11T13:55:44;11.48;;;10.68;;
28086;SDS011;15392;48.912;8.380;2022-12-11T13:58:20;12.52;;;11.55;;
28086;SDS011;15392;48.912;8.380;2022-12-11T14:00:56;12.40;;;11.50;;
28086;SDS011;15392;48.912;8.380;2022-12-11T14:03:32;11.80;;;10.88;;
28086;SDS011;15392;48.912;8.380;2022-12-11T14:05:59;13.60;;;12.55;;
28086;SDS011;15392;48.912;8.380;2022-12-11T14:08:30;13.40;;;12.30;;
28086;SDS011;15392;48.912;8.380;2022-12-11T14:11:00;13.77;;;12.68;;
28086;SDS011;15392;48.912;8.380;2022-12-11T14:13:30;15.75;;;14.40;;
28086;SDS011;15392;48.912;8.380;2022-12-11T14:16:03;14.45;;;13.25;;
28086;SDS011;15392;48.912;8.380;2022-12-11T14:18:32;14.00;;;12.80;;
28086;SDS011;15392;48.912;8.380;2022-12-11T14:21:04;14.30;;;13.10;;
28086;SDS011;15392;48.912;8.380;2022-12-11T14:23:34;14.13;;;12.90;;
28086;SDS011;15392;48.912;8.380;2022-12-11T14:26:23;14.27;;;13.10;;
28086;SDS011;15392;48.912;8.380;2022-12-11T14:28:50;14.15;;;12.98;;
28086;SDS011;15392;48.912;8.380;2022-12-11T14:31:23;12.82;;;11.82;;
28086;SDS011;15392;48.912;8.380;2022-12-11T14:33:57;12.00;;;11.00;;
28086;SDS011;15392;48.912;8.380;2022-12-11T14:36:53;11.75;;;10.85;;
28086;SDS011;15392;48.912;8.380;2022-12-11T14:39:26;12.82;;;11.75;;
28086;SDS011;15392;48.912;8.380;2022-12-11T14:41:59;12.80;;;11.60;;
28086;SDS011;15392;48.912;8.380;2022-12-11T14:44:51;15.55;;;14.05;;
28086;SDS011;15392;48.912;8.380;2022-12-11T14:47:32;15.88;;;14.27;;
28086;SDS011;15392;48.912;8.380;2022-12-11T14:52:45;17.40;;;14.20;;
28086;SDS011;15392;48.912;8.380;2022-12-11T14:55:19;15.75;;;14.32;;
28086;SDS011;15392;48.912;8.380;2022-12-11T14:57:51;14.02;;;12.77;;
28086;SDS011;15392;48.912;8.380;2022-12-11T15:00:30;13.43;;;12.38;;
28086;SDS011;15392;48.912;8.380;2022-12-11T15:03:03;12.38;;;11.35;;
28086;SDS011;15392;48.912;8.380;2022-12-11T15:05:34;13.82;;;12.73;;
28086;SDS011;15392;48.912;8.380;2022-12-11T15:08:01;14.35;;;13.15;;
28086;SDS011;15392;48.912;8.380;2022-12-11T15:10:41;12.23;;;11.25;;
28086;SDS011;15392;48.912;8.380;2022-12-11T15:13:25;11.45;;;10.60;;
28086;SDS011;15392;48.912;8.380;2022-12-11T15:15:51;12.93;;;11.82;;
28086;SDS011;15392;48.912;8.380;2022-12-11T15:18:23;12.63;;;11.73;;
28086;SDS011;15392;48.912;8.380;2022-12-11T15:20:51;13.63;;;12.63;;
28086;SDS011;15392;48.912;8.380;2022-12-11T15:23:24;12.70;;;11.70;;
28086;SDS011;15392;48.912;8.380;2022-12-11T15:25:51;12.57;;;11.57;;
28086;SDS011;15392;48.912;8.380;2022-12-11T15:28:34;12.80;;;11.75;;
28086;SDS011;15392;48.912;8.380;2022-12-11T15:31:03;13.43;;;12.25;;
28086;SDS011;15392;48.912;8.380;2022-12-11T15:33:49;12.98;;;11.98;;
28086;SDS011;15392;48.912;8.380;2022-12-11T15:39:01;13.75;;;12.68;;
28086;SDS011;15392;48.912;8.380;2022-12-11T15:41:29;13.18;;;12.18;;
28086;SDS011;15392;48.912;8.380;2022-12-11T15:44:00;14.07;;;12.88;;
28086;SDS011;15392;48.912;8.380;2022-12-11T15:46:28;13.57;;;12.52;;
28086;SDS011;15392;48.912;8.380;2022-12-11T15:48:54;13.93;;;12.82;;
28086;SDS011;15392;48.912;8.380;2022-12-11T15:51:21;20.55;;;18.60;;
28086;SDS011;15392;48.912;8.380;2022-12-11T15:53:47;17.80;;;16.20;;
28086;SDS011;15392;48.912;8.380;2022-12-11T15:56:13;25.77;;;23.40;;
28086;SDS011;15392;48.912;8.380;2022-12-11T15:58:40;21.38;;;19.38;;
28086;SDS011;15392;48.912;8.380;2022-12-11T16:01:08;16.98;;;15.48;;
28086;SDS011;15392;48.912;8.380;2022-12-11T16:03:34;15.77;;;14.48;;
28086;SDS011;15392;48.912;8.380;2022-12-11T16:06:00;14.10;;;13.00;;
28086;SDS011;15392;48.912;8.380;2022-12-11T16:08:26;14.10;;;13.00;;
28086;SDS011;15392;48.912;8.380;2022-12-11T16:10:52;15.15;;;13.95;;
28086;SDS011;15392;48.912;8.380;2022-12-11T16:13:18;16.02;;;14.68;;
28086;SDS011;15392;48.912;8.380;2022-12-11T16:15:45;14.50;;;13.30;;
28086;SDS011;15392;48.912;8.380;2022-12-11T16:18:17;15.43;;;14.13;;
28086;SDS011;15392;48.912;8.380;2022-12-11T16:20:46;15.98;;;14.73;;